sensor_id;sensor_type;location;lat;lon;timestamp;P1;durP1;ratioP1;P2;durP2;ratioP2
20283;SDS011;10301;50.832;4.080;2023-03-03T00:01:21;36.63;;;18.27;;
20283;SDS011;10301;50.832;4.080;2023-03-03T00:03:49;48.27;;;27.00;;
20283;SDS011;10301;50.832;4.080;2023-03-03T00:06:15;32.60;;;18.40;;
20283;SDS011;10301;50.832;4.080;2023-03-03T00:08:41;33.40;;;17.73;;
20283;SDS011;10301;50.832;4.080;2023-03-03T00:11:07;32.43;;;16.63;;
20283;SDS011;10301;50.832;4.080;2023-03-03T00:13:44;33.73;;;17.87;;
20283;SDS011;10301;50.832;4.080;2023-03-03T00:16:14;34.83;;;16.80;;
20283;SDS011;10301;50.832;4.080;2023-03-03T00:18:44;36.27;;;18.13;;
20283;SDS011;10301;50.832;4.080;2023-03-03T00:21:19;35.73;;;18.53;;
20283;SDS011;10301;50.832;4.080;2023-03-03T00:23:53;35.73;;;16.90;;
20283;SDS011;10301;50.832;4.080;2023-03-03T00:26:25;34.30;;;17.13;;
20283;SDS011;10301;50.832;4.080;2023-03-03T00:28:54;31.60;;;16.00;;
20283;SDS011;10301;50.832;4.080;2023-03-03T00:31:34;33.07;;;16.00;;
20283;SDS011;10301;50.832;4.080;2023-03-03T00:34:20;35.30;;;16.10;;
20283;SDS011;10301;50.832;4.080;2023-03-03T00:36:51;31.90;;;16.83;;
20283;SDS011;10301;50.832;4.080;2023-03-03T00:41:45;32.43;;;17.17;;
20283;SDS011;10301;50.832;4.080;2023-03-03T00:49:50;31.50;;;14.70;;
20283;SDS011;10301;50.832;4.080;2023-03-03T00:52:23;28.90;;;13.90;;
20283;SDS011;10301;50.832;4.080;2023-03-03T00:54:53;34.27;;;15.97;;
20283;SDS011;10301;50.832;4.080;2023-03-03T00:57:19;31.40;;;15.23;;
20283;SDS011;10301;50.832;4.080;2023-03-03T00:59:44;29.23;;;14.53;;
20283;SDS011;10301;50.832;4.080;2023-03-03T01:02:10;31.33;;;15.20;;
20283;SDS011;10301;50.832;4.080;2023-03-03T01:04:36;32.70;;;15.73;;
20283;SDS011;10301;50.832;4.080;2023-03-03T01:07:02;31.77;;;15.40;;
20283;SDS011;10301;50.832;4.080;2023-03-03T01:09:28;34.10;;;16.20;;
20283;SDS011;10301;50.832;4.080;2023-03-03T01:11:54;34.97;;;16.03;;
20283;SDS011;10301;50.832;4.080;2023-03-03T01:14:20;34.20;;;16.97;;
20283;SDS011;10301;50.832;4.080;2023-03-03T01:16:45;39.57;;;18.00;;
20283;SDS011;10301;50.832;4.080;2023-03-03T01:19:11;38.80;;;18.00;;
20283;SDS011;10301;50.832;4.080;2023-03-03T01:21:37;37.50;;;17.23;;
20283;SDS011;10301;50.832;4.080;2023-03-03T01:24:04;39.87;;;16.10;;
20283;SDS011;10301;50.832;4.080;2023-03-03T01:26:29;39.37;;;19.77;;
20283;SDS011;10301;50.832;4.080;2023-03-03T01:28:55;37.10;;;19.43;;
20283;SDS011;10301;50.832;4.080;2023-03-03T01:31:21;36.00;;;17.70;;
20283;SDS011;10301;50.832;4.080;2023-03-03T01:33:46;38.47;;;19.17;;
20283;SDS011;10301;50.832;4.080;2023-03-03T01:36:12;36.33;;;16.50;;
20283;SDS011;10301;50.832;4.080;2023-03-03T01:38:38;39.73;;;18.53;;
20283;SDS011;10301;50.832;4.080;2023-03-03T01:41:04;37.37;;;17.47;;
20283;SDS011;10301;50.832;4.080;2023-03-03T01:43:31;31.20;;;16.90;;
20283;SDS011;10301;50.832;4.080;2023-03-03T01:48:42;39.43;;;18.73;;
20283;SDS011;10301;50.832;4.080;2023-03-03T01:51:22;38.00;;;18.03;;
20283;SDS011;10301;50.832;4.080;2023-03-03T01:54:03;37.40;;;17.97;;
20283;SDS011;10301;50.832;4.080;2023-03-03T01:56:35;36.33;;;16.37;;
20283;SDS011;10301;50.832;4.080;2023-03-03T01:59:02;36.43;;;17.33;;
20283;SDS011;10301;50.832;4.080;2023-03-03T02:01:30;35.63;;;16.53;;
20283;SDS011;10301;50.832;4.080;2023-03-03T02:03:58;39.17;;;17.13;;
20283;SDS011;10301;50.832;4.080;2023-03-03T02:06:29;35.60;;;17.13;;
20283;SDS011;10301;50.832;4.080;2023-03-03T02:09:00;35.50;;;18.27;;
20283;SDS011;10301;50.832;4.080;2023-03-03T02:11:39;37.03;;;17.70;;
20283;SDS011;10301;50.832;4.080;2023-03-03T02:14:07;36.90;;;17.97;;
20283;SDS011;10301;50.832;4.080;2023-03-03T02:16:34;39.57;;;18.53;;
20283;SDS011;10301;50.832;4.080;2023-03-03T02:18:59;39.27;;;17.83;;
20283;SDS011;10301;50.832;4.080;2023-03-03T02:21:25;35.40;;;17.73;;
20283;SDS011;10301;50.832;4.080;2023-03-03T02:26:25;39.27;;;19.20;;
20283;SDS011;10301;50.832;4.080;2023-03-03T02:28:52;35.90;;;17.87;;
20283;SDS011;10301;50.832;4.080;2023-03-03T02:31:19;39.83;;;18.47;;
20283;SDS011;10301;50.832;4.080;2023-03-03T02:33:48;36.60;;;18.97;;
20283;SDS011;10301;50.832;4.080;2023-03-03T02:36:19;36.20;;;18.10;;
20283;SDS011;10301;50.832;4.080;2023-03-03T02:38:57;39.07;;;18.57;;
20283;SDS011;10301;50.832;4.080;2023-03-03T02:44:02;38.97;;;17.93;;
20283;SDS011;10301;50.832;4.080;2023-03-03T02:46:33;40.70;;;18.83;;
20283;SDS011;10301;50.832;4.080;2023-03-03T02:49:00;38.27;;;19.10;;
20283;SDS011;10301;50.832;4.080;2023-03-03T02:51:26;38.93;;;19.03;;
20283;SDS011;10301;50.832;4.080;2023-03-03T02:53:52;38.40;;;19.17;;
20283;SDS011;10301;50.832;4.080;2023-03-03T02:56:17;40.17;;;18.47;;
20283;SDS011;10301;50.832;4.080;2023-03-03T02:58:43;41.43;;;18.97;;
20283;SDS011;10301;50.832;4.080;2023-03-03T03:01:09;38.57;;;18.33;;
20283;SDS011;10301;50.832;4.080;2023-03-03T03:03:34;38.97;;;19.53;;
20283;SDS011;10301;50.832;4.080;2023-03-03T03:06:00;41.47;;;20.07;;
20283;SDS011;10301;50.832;4.080;2023-03-03T03:08:26;40.20;;;19.80;;
20283;SDS011;10301;50.832;4.080;2023-03-03T03:10:52;43.50;;;20.83;;
20283;SDS011;10301;50.832;4.080;2023-03-03T03:13:17;41.57;;;19.33;;
20283;SDS011;10301;50.832;4.080;2023-03-03T03:15:46;45.37;;;19.43;;
20283;SDS011;10301;50.832;4.080;2023-03-03T03:18:12;38.47;;;19.47;;
20283;SDS011;10301;50.832;4.080;2023-03-03T03:20:38;43.27;;;20.77;;
20283;SDS011;10301;50.832;4.080;2023-03-03T03:23:05;47.20;;;20.33;;
20283;SDS011;10301;50.832;4.080;2023-03-03T03:25:32;40.03;;;18.83;;
20283;SDS011;10301;50.832;4.080;2023-03-03T03:27:58;42.13;;;18.17;;
20283;SDS011;10301;50.832;4.080;2023-03-03T03:30:24;47.87;;;20.63;;
20283;SDS011;10301;50.832;4.080;2023-03-03T03:32:50;46.20;;;21.73;;
20283;SDS011;10301;50.832;4.080;2023-03-03T03:35:16;39.40;;;19.00;;
20283;SDS011;10301;50.832;4.080;2023-03-03T03:37:42;40.77;;;19.57;;
20283;SDS011;10301;50.832;4.080;2023-03-03T03:40:08;45.37;;;20.63;;
20283;SDS011;10301;50.832;4.080;2023-03-03T03:42:35;45.87;;;20.70;;
20283;SDS011;10301;50.832;4.080;2023-03-03T03:45:02;46.40;;;21.30;;
20283;SDS011;10301;50.832;4.080;2023-03-03T03:47:28;40.93;;;20.00;;
20283;SDS011;10301;50.832;4.080;2023-03-03T03:49:54;41.83;;;19.37;;
20283;SDS011;10301;50.832;4.080;2023-03-03T03:52:19;47.20;;;21.50;;
20283;SDS011;10301;50.832;4.080;2023-03-03T03:54:45;46.60;;;21.27;;
20283;SDS011;10301;50.832;4.080;2023-03-03T03:57:11;44.70;;;20.43;;
20283;SDS011;10301;50.832;4.080;2023-03-03T03:59:36;43.13;;;20.03;;
20283;SDS011;10301;50.832;4.080;2023-03-03T04:02:02;45.43;;;20.53;;
20283;SDS011;10301;50.832;4.080;2023-03-03T04:04:28;47.07;;;21.57;;
20283;SDS011;10301;50.832;4.080;2023-03-03T04:06:54;44.77;;;21.60;;
20283;SDS011;10301;50.832;4.080;2023-03-03T04:09:20;44.27;;;20.53;;
20283;SDS011;10301;50.832;4.080;2023-03-03T04:11:45;43.63;;;20.23;;
20283;SDS011;10301;50.832;4.080;2023-03-03T04:14:11;44.97;;;21.00;;
20283;SDS011;10301;50.832;4.080;2023-03-03T04:16:37;52.20;;;22.37;;
20283;SDS011;10301;50.832;4.080;2023-03-03T04:19:02;49.20;;;21.60;;
20283;SDS011;10301;50.832;4.080;2023-03-03T04:21:28;44.07;;;21.80;;
20283;SDS011;10301;50.832;4.080;2023-03-03T04:23:54;48.13;;;21.50;;
20283;SDS011;10301;50.832;4.080;2023-03-03T04:26:19;46.50;;;22.10;;
20283;SDS011;10301;50.832;4.080;2023-03-03T04:28:45;51.87;;;24.13;;
20283;SDS011;10301;50.832;4.080;2023-03-03T04:31:11;46.07;;;21.57;;
20283;SDS011;10301;50.832;4.080;2023-03-03T04:33:37;48.27;;;22.20;;
20283;SDS011;10301;50.832;4.080;2023-03-03T04:36:03;45.57;;;21.63;;
20283;SDS011;10301;50.832;4.080;2023-03-03T04:38:29;49.40;;;22.20;;
20283;SDS011;10301;50.832;4.080;2023-03-03T04:40:55;53.63;;;24.00;;
20283;SDS011;10301;50.832;4.080;2023-03-03T04:43:21;52.43;;;23.07;;
20283;SDS011;10301;50.832;4.080;2023-03-03T04:45:47;51.60;;;22.43;;
20283;SDS011;10301;50.832;4.080;2023-03-03T04:48:12;51.97;;;24.00;;
20283;SDS011;10301;50.832;4.080;2023-03-03T04:50:38;58.17;;;25.17;;
20283;SDS011;10301;50.832;4.080;2023-03-03T04:53:04;62.33;;;25.67;;
20283;SDS011;10301;50.832;4.080;2023-03-03T04:55:30;68.93;;;28.93;;
20283;SDS011;10301;50.832;4.080;2023-03-03T04:57:55;71.97;;;27.93;;
20283;SDS011;10301;50.832;4.080;2023-03-03T05:00:21;72.17;;;28.73;;
20283;SDS011;10301;50.832;4.080;2023-03-03T05:02:47;83.53;;;31.27;;
20283;SDS011;10301;50.832;4.080;2023-03-03T05:05:13;83.50;;;32.10;;
20283;SDS011;10301;50.832;4.080;2023-03-03T05:07:39;81.23;;;31.73;;
20283;SDS011;10301;50.832;4.080;2023-03-03T05:10:05;83.23;;;31.77;;
20283;SDS011;10301;50.832;4.080;2023-03-03T05:12:32;86.40;;;31.93;;
20283;SDS011;10301;50.832;4.080;2023-03-03T05:14:57;72.00;;;28.40;;
20283;SDS011;10301;50.832;4.080;2023-03-03T05:17:23;76.87;;;29.30;;
20283;SDS011;10301;50.832;4.080;2023-03-03T05:19:49;75.60;;;30.27;;
20283;SDS011;10301;50.832;4.080;2023-03-03T05:22:14;75.37;;;30.43;;
20283;SDS011;10301;50.832;4.080;2023-03-03T05:24:40;66.40;;;28.30;;
20283;SDS011;10301;50.832;4.080;2023-03-03T05:27:07;61.53;;;27.33;;
20283;SDS011;10301;50.832;4.080;2023-03-03T05:29:33;61.23;;;27.40;;
20283;SDS011;10301;50.832;4.080;2023-03-03T05:31:59;58.60;;;26.80;;
20283;SDS011;10301;50.832;4.080;2023-03-03T05:34:25;48.80;;;22.60;;
20283;SDS011;10301;50.832;4.080;2023-03-03T05:36:51;55.50;;;26.90;;
20283;SDS011;10301;50.832;4.080;2023-03-03T05:39:16;52.30;;;26.27;;
20283;SDS011;10301;50.832;4.080;2023-03-03T05:41:42;54.10;;;25.23;;
20283;SDS011;10301;50.832;4.080;2023-03-03T05:44:08;58.73;;;26.00;;
20283;SDS011;10301;50.832;4.080;2023-03-03T05:46:34;59.33;;;24.37;;
20283;SDS011;10301;50.832;4.080;2023-03-03T05:49:00;68.07;;;27.97;;
20283;SDS011;10301;50.832;4.080;2023-03-03T05:51:25;70.70;;;26.53;;
20283;SDS011;10301;50.832;4.080;2023-03-03T05:53:51;56.70;;;25.23;;
20283;SDS011;10301;50.832;4.080;2023-03-03T05:56:17;65.67;;;27.27;;
20283;SDS011;10301;50.832;4.080;2023-03-03T05:58:43;59.90;;;26.20;;
20283;SDS011;10301;50.832;4.080;2023-03-03T06:01:09;55.10;;;24.43;;
20283;SDS011;10301;50.832;4.080;2023-03-03T06:03:35;49.03;;;23.73;;
20283;SDS011;10301;50.832;4.080;2023-03-03T06:06:01;55.00;;;23.60;;
20283;SDS011;10301;50.832;4.080;2023-03-03T06:08:26;60.03;;;25.20;;
20283;SDS011;10301;50.832;4.080;2023-03-03T06:10:53;58.70;;;24.13;;
20283;SDS011;10301;50.832;4.080;2023-03-03T06:13:19;52.07;;;23.27;;
20283;SDS011;10301;50.832;4.080;2023-03-03T06:15:44;58.53;;;23.37;;
20283;SDS011;10301;50.832;4.080;2023-03-03T06:18:10;59.80;;;24.30;;
20283;SDS011;10301;50.832;4.080;2023-03-03T06:20:36;58.20;;;24.20;;
20283;SDS011;10301;50.832;4.080;2023-03-03T06:23:02;59.33;;;25.60;;
20283;SDS011;10301;50.832;4.080;2023-03-03T06:25:28;56.93;;;24.87;;
20283;SDS011;10301;50.832;4.080;2023-03-03T06:27:54;60.10;;;25.23;;
20283;SDS011;10301;50.832;4.080;2023-03-03T06:30:19;55.73;;;25.00;;
20283;SDS011;10301;50.832;4.080;2023-03-03T06:32:45;53.83;;;24.57;;
20283;SDS011;10301;50.832;4.080;2023-03-03T06:35:11;50.00;;;23.13;;
20283;SDS011;10301;50.832;4.080;2023-03-03T06:37:36;57.47;;;25.20;;
20283;SDS011;10301;50.832;4.080;2023-03-03T06:40:03;59.60;;;25.70;;
20283;SDS011;10301;50.832;4.080;2023-03-03T06:42:32;49.53;;;22.77;;
20283;SDS011;10301;50.832;4.080;2023-03-03T06:44:57;54.30;;;24.00;;
20283;SDS011;10301;50.832;4.080;2023-03-03T06:47:23;59.93;;;24.20;;
20283;SDS011;10301;50.832;4.080;2023-03-03T06:49:49;54.20;;;23.50;;
20283;SDS011;10301;50.832;4.080;2023-03-03T06:52:18;56.87;;;23.43;;
20283;SDS011;10301;50.832;4.080;2023-03-03T06:54:48;55.33;;;24.83;;
20283;SDS011;10301;50.832;4.080;2023-03-03T06:57:27;59.30;;;25.17;;
20283;SDS011;10301;50.832;4.080;2023-03-03T06:59:56;52.17;;;22.10;;
20283;SDS011;10301;50.832;4.080;2023-03-03T07:02:26;53.97;;;22.83;;
20283;SDS011;10301;50.832;4.080;2023-03-03T07:04:52;56.77;;;23.40;;
20283;SDS011;10301;50.832;4.080;2023-03-03T07:07:22;56.23;;;22.80;;
20283;SDS011;10301;50.832;4.080;2023-03-03T07:09:50;57.53;;;22.23;;
20283;SDS011;10301;50.832;4.080;2023-03-03T07:12:18;50.63;;;21.73;;
20283;SDS011;10301;50.832;4.080;2023-03-03T07:14:47;57.83;;;23.60;;
20283;SDS011;10301;50.832;4.080;2023-03-03T07:17:21;51.33;;;21.80;;
20283;SDS011;10301;50.832;4.080;2023-03-03T07:19:48;55.70;;;23.10;;
20283;SDS011;10301;50.832;4.080;2023-03-03T07:22:18;53.40;;;21.80;;
20283;SDS011;10301;50.832;4.080;2023-03-03T07:24:56;53.50;;;23.57;;
20283;SDS011;10301;50.832;4.080;2023-03-03T07:27:26;54.90;;;22.87;;
20283;SDS011;10301;50.832;4.080;2023-03-03T07:29:54;49.93;;;21.83;;
20283;SDS011;10301;50.832;4.080;2023-03-03T07:32:46;52.53;;;23.20;;
20283;SDS011;10301;50.832;4.080;2023-03-03T07:38:01;54.00;;;21.83;;
20283;SDS011;10301;50.832;4.080;2023-03-03T07:43:46;51.17;;;23.67;;
20283;SDS011;10301;50.832;4.080;2023-03-03T07:45:57;49.37;;;22.20;;
20283;SDS011;10301;50.832;4.080;2023-03-03T07:48:34;48.83;;;21.87;;
20283;SDS011;10301;50.832;4.080;2023-03-03T07:51:12;60.63;;;24.73;;
20283;SDS011;10301;50.832;4.080;2023-03-03T07:53:47;55.17;;;22.00;;
20283;SDS011;10301;50.832;4.080;2023-03-03T07:58:46;49.20;;;20.67;;
20283;SDS011;10301;50.832;4.080;2023-03-03T08:01:30;46.73;;;20.80;;
20283;SDS011;10301;50.832;4.080;2023-03-03T08:07:01;47.63;;;19.77;;
20283;SDS011;10301;50.832;4.080;2023-03-03T08:09:34;53.20;;;21.87;;
20283;SDS011;10301;50.832;4.080;2023-03-03T08:14:35;43.07;;;19.30;;
20283;SDS011;10301;50.832;4.080;2023-03-03T08:17:22;49.20;;;20.13;;
20283;SDS011;10301;50.832;4.080;2023-03-03T08:19:49;38.30;;;17.37;;
20283;SDS011;10301;50.832;4.080;2023-03-03T08:22:17;42.50;;;17.93;;
20283;SDS011;10301;50.832;4.080;2023-03-03T08:24:48;41.63;;;18.47;;
20283;SDS011;10301;50.832;4.080;2023-03-03T08:27:15;42.53;;;18.57;;
20283;SDS011;10301;50.832;4.080;2023-03-03T08:29:41;42.83;;;18.00;;
20283;SDS011;10301;50.832;4.080;2023-03-03T08:32:06;38.40;;;18.27;;
20283;SDS011;10301;50.832;4.080;2023-03-03T08:34:32;39.73;;;18.73;;
20283;SDS011;10301;50.832;4.080;2023-03-03T08:36:58;39.07;;;18.67;;
20283;SDS011;10301;50.832;4.080;2023-03-03T08:39:23;40.90;;;18.47;;
20283;SDS011;10301;50.832;4.080;2023-03-03T08:41:49;40.80;;;17.67;;
20283;SDS011;10301;50.832;4.080;2023-03-03T08:44:15;45.10;;;18.70;;
20283;SDS011;10301;50.832;4.080;2023-03-03T08:46:40;38.67;;;15.77;;
20283;SDS011;10301;50.832;4.080;2023-03-03T08:49:07;42.10;;;18.33;;
20283;SDS011;10301;50.832;4.080;2023-03-03T08:51:33;39.43;;;18.60;;
20283;SDS011;10301;50.832;4.080;2023-03-03T08:53:59;40.50;;;18.13;;
20283;SDS011;10301;50.832;4.080;2023-03-03T08:56:25;41.87;;;18.80;;
20283;SDS011;10301;50.832;4.080;2023-03-03T08:58:50;40.13;;;17.97;;
20283;SDS011;10301;50.832;4.080;2023-03-03T09:01:16;35.50;;;16.07;;
20283;SDS011;10301;50.832;4.080;2023-03-03T09:03:42;39.30;;;18.67;;
20283;SDS011;10301;50.832;4.080;2023-03-03T09:06:08;35.97;;;16.57;;
20283;SDS011;10301;50.832;4.080;2023-03-03T09:08:35;36.10;;;17.43;;
20283;SDS011;10301;50.832;4.080;2023-03-03T09:11:01;36.40;;;16.90;;
20283;SDS011;10301;50.832;4.080;2023-03-03T09:13:32;32.27;;;15.63;;
20283;SDS011;10301;50.832;4.080;2023-03-03T09:15:58;34.17;;;15.73;;
20283;SDS011;10301;50.832;4.080;2023-03-03T09:18:28;30.47;;;13.93;;
20283;SDS011;10301;50.832;4.080;2023-03-03T09:20:59;26.50;;;12.03;;
20283;SDS011;10301;50.832;4.080;2023-03-03T09:26:16;31.70;;;13.70;;
20283;SDS011;10301;50.832;4.080;2023-03-03T09:31:44;31.60;;;12.43;;
20283;SDS011;10301;50.832;4.080;2023-03-03T09:37:00;31.33;;;13.20;;
20283;SDS011;10301;50.832;4.080;2023-03-03T09:39:39;33.00;;;14.23;;
20283;SDS011;10301;50.832;4.080;2023-03-03T09:53:11;28.97;;;13.00;;
20283;SDS011;10301;50.832;4.080;2023-03-03T10:04:26;32.50;;;14.60;;
20283;SDS011;10301;50.832;4.080;2023-03-03T10:15:38;31.93;;;14.63;;
20283;SDS011;10301;50.832;4.080;2023-03-03T10:18:46;39.63;;;16.40;;
20283;SDS011;10301;50.832;4.080;2023-03-03T10:35:00;33.83;;;14.53;;
20283;SDS011;10301;50.832;4.080;2023-03-03T10:46:01;29.70;;;13.30;;
20283;SDS011;10301;50.832;4.080;2023-03-03T10:57:09;32.57;;;13.50;;
20283;SDS011;10301;50.832;4.080;2023-03-03T10:59:57;31.10;;;14.47;;
20283;SDS011;10301;50.832;4.080;2023-03-03T11:03:07;25.63;;;13.17;;
20283;SDS011;10301;50.832;4.080;2023-03-03T11:05:57;28.03;;;13.03;;
20283;SDS011;10301;50.832;4.080;2023-03-03T11:08:26;26.33;;;12.87;;
20283;SDS011;10301;50.832;4.080;2023-03-03T11:11:07;26.37;;;12.20;;
20283;SDS011;10301;50.832;4.080;2023-03-03T11:20:07;32.10;;;13.67;;
20283;SDS011;10301;50.832;4.080;2023-03-03T11:34:06;33.53;;;15.70;;
20283;SDS011;10301;50.832;4.080;2023-03-03T11:37:20;31.50;;;15.10;;
20283;SDS011;10301;50.832;4.080;2023-03-03T11:39:52;30.80;;;14.53;;
20283;SDS011;10301;50.832;4.080;2023-03-03T11:45:30;24.90;;;12.13;;
20283;SDS011;10301;50.832;4.080;2023-03-03T11:48:16;30.40;;;13.37;;
20283;SDS011;10301;50.832;4.080;2023-03-03T11:50:52;27.90;;;13.53;;
20283;SDS011;10301;50.832;4.080;2023-03-03T11:58:53;27.27;;;14.13;;
20283;SDS011;10301;50.832;4.080;2023-03-03T12:01:45;28.67;;;13.17;;
20283;SDS011;10301;50.832;4.080;2023-03-03T12:04:30;26.97;;;12.97;;
20283;SDS011;10301;50.832;4.080;2023-03-03T12:07:05;22.80;;;11.60;;
20283;SDS011;10301;50.832;4.080;2023-03-03T12:12:39;26.07;;;12.60;;
20283;SDS011;10301;50.832;4.080;2023-03-03T12:40:32;29.80;;;15.20;;
20283;SDS011;10301;50.832;4.080;2023-03-03T12:45:48;23.83;;;11.90;;
20283;SDS011;10301;50.832;4.080;2023-03-03T12:48:42;25.73;;;12.73;;
20283;SDS011;10301;50.832;4.080;2023-03-03T12:51:23;26.30;;;13.40;;
20283;SDS011;10301;50.832;4.080;2023-03-03T12:57:00;25.77;;;14.37;;
20283;SDS011;10301;50.832;4.080;2023-03-03T13:05:15;30.33;;;16.43;;
20283;SDS011;10301;50.832;4.080;2023-03-03T13:08:01;27.97;;;13.57;;
20283;SDS011;10301;50.832;4.080;2023-03-03T13:11:06;27.03;;;13.73;;
20283;SDS011;10301;50.832;4.080;2023-03-03T13:13:51;27.90;;;13.83;;
20283;SDS011;10301;50.832;4.080;2023-03-03T13:16:29;28.50;;;14.30;;
20283;SDS011;10301;50.832;4.080;2023-03-03T13:19:00;27.67;;;13.73;;
20283;SDS011;10301;50.832;4.080;2023-03-03T13:24:18;27.63;;;12.63;;
20283;SDS011;10301;50.832;4.080;2023-03-03T13:27:13;33.37;;;13.30;;
20283;SDS011;10301;50.832;4.080;2023-03-03T13:32:42;28.90;;;13.87;;
20283;SDS011;10301;50.832;4.080;2023-03-03T13:35:31;26.93;;;13.70;;
20283;SDS011;10301;50.832;4.080;2023-03-03T13:38:01;28.17;;;13.10;;
20283;SDS011;10301;50.832;4.080;2023-03-03T13:43:22;25.50;;;14.17;;
20283;SDS011;10301;50.832;4.080;2023-03-03T13:45:56;26.17;;;12.73;;
20283;SDS011;10301;50.832;4.080;2023-03-03T13:48:34;24.37;;;13.33;;
20283;SDS011;10301;50.832;4.080;2023-03-03T14:05:36;26.17;;;13.67;;
20283;SDS011;10301;50.832;4.080;2023-03-03T14:08:08;25.37;;;12.93;;
20283;SDS011;10301;50.832;4.080;2023-03-03T14:14:06;23.90;;;12.93;;
20283;SDS011;10301;50.832;4.080;2023-03-03T14:19:27;25.73;;;14.23;;
20283;SDS011;10301;50.832;4.080;2023-03-03T14:24:55;25.07;;;13.53;;
20283;SDS011;10301;50.832;4.080;2023-03-03T14:27:25;20.67;;;11.10;;
20283;SDS011;10301;50.832;4.080;2023-03-03T14:29:58;20.37;;;10.70;;
20283;SDS011;10301;50.832;4.080;2023-03-03T14:32:49;22.87;;;11.53;;
20283;SDS011;10301;50.832;4.080;2023-03-03T14:35:36;18.50;;;10.10;;
20283;SDS011;10301;50.832;4.080;2023-03-03T14:38:08;21.70;;;11.73;;
20283;SDS011;10301;50.832;4.080;2023-03-03T14:40:38;20.87;;;11.33;;
20283;SDS011;10301;50.832;4.080;2023-03-03T14:43:20;19.77;;;10.77;;
20283;SDS011;10301;50.832;4.080;2023-03-03T14:45:51;21.93;;;12.03;;
20283;SDS011;10301;50.832;4.080;2023-03-03T14:48:22;18.10;;;9.77;;
20283;SDS011;10301;50.832;4.080;2023-03-03T14:50:56;18.40;;;9.77;;
20283;SDS011;10301;50.832;4.080;2023-03-03T14:53:35;18.23;;;9.30;;
20283;SDS011;10301;50.832;4.080;2023-03-03T15:01:43;21.37;;;9.70;;
20283;SDS011;10301;50.832;4.080;2023-03-03T15:11:58;15.80;;;7.63;;
20283;SDS011;10301;50.832;4.080;2023-03-03T15:14:28;15.03;;;8.10;;
20283;SDS011;10301;50.832;4.080;2023-03-03T15:17:19;15.70;;;7.83;;
20283;SDS011;10301;50.832;4.080;2023-03-03T15:33:36;17.37;;;8.47;;
20283;SDS011;10301;50.832;4.080;2023-03-03T15:39:20;17.00;;;8.60;;
20283;SDS011;10301;50.832;4.080;2023-03-03T15:53:01;12.13;;;7.30;;
20283;SDS011;10301;50.832;4.080;2023-03-03T15:56:02;15.63;;;7.37;;
20283;SDS011;10301;50.832;4.080;2023-03-03T16:04:15;14.03;;;7.40;;
20283;SDS011;10301;50.832;4.080;2023-03-03T16:06:48;14.63;;;7.00;;
20283;SDS011;10301;50.832;4.080;2023-03-03T16:23:57;16.00;;;7.47;;
20283;SDS011;10301;50.832;4.080;2023-03-03T16:32:42;16.90;;;9.90;;
20283;SDS011;10301;50.832;4.080;2023-03-03T16:35:22;18.40;;;10.30;;
20283;SDS011;10301;50.832;4.080;2023-03-03T16:40:23;20.77;;;9.47;;
20283;SDS011;10301;50.832;4.080;2023-03-03T16:43:18;18.43;;;10.37;;
20283;SDS011;10301;50.832;4.080;2023-03-03T16:46:12;18.03;;;9.77;;
20283;SDS011;10301;50.832;4.080;2023-03-03T16:49:07;18.13;;;10.27;;
20283;SDS011;10301;50.832;4.080;2023-03-03T17:00:22;17.93;;;10.50;;
20283;SDS011;10301;50.832;4.080;2023-03-03T17:02:56;17.67;;;9.53;;
20283;SDS011;10301;50.832;4.080;2023-03-03T17:05:35;18.53;;;9.07;;
20283;SDS011;10301;50.832;4.080;2023-03-03T17:14:02;15.40;;;8.87;;
20283;SDS011;10301;50.832;4.080;2023-03-03T17:19:24;20.13;;;8.53;;
20283;SDS011;10301;50.832;4.080;2023-03-03T17:22:17;15.50;;;8.43;;
20283;SDS011;10301;50.832;4.080;2023-03-03T17:24:55;16.33;;;8.03;;
20283;SDS011;10301;50.832;4.080;2023-03-03T17:30:18;15.80;;;9.33;;
20283;SDS011;10301;50.832;4.080;2023-03-03T17:32:57;19.03;;;10.87;;
20283;SDS011;10301;50.832;4.080;2023-03-03T17:43:30;23.97;;;10.97;;
20283;SDS011;10301;50.832;4.080;2023-03-03T17:46:00;19.90;;;11.33;;
20283;SDS011;10301;50.832;4.080;2023-03-03T17:51:18;22.80;;;11.70;;
20283;SDS011;10301;50.832;4.080;2023-03-03T17:53:53;20.77;;;11.80;;
20283;SDS011;10301;50.832;4.080;2023-03-03T18:08:03;20.43;;;11.30;;
20283;SDS011;10301;50.832;4.080;2023-03-03T18:13:55;23.00;;;13.03;;
20283;SDS011;10301;50.832;4.080;2023-03-03T18:21:53;27.60;;;14.40;;
20283;SDS011;10301;50.832;4.080;2023-03-03T18:24:52;30.27;;;18.33;;
20283;SDS011;10301;50.832;4.080;2023-03-03T18:35:40;26.40;;;14.37;;
20283;SDS011;10301;50.832;4.080;2023-03-03T18:40:50;22.77;;;13.80;;
20283;SDS011;10301;50.832;4.080;2023-03-03T18:49:02;23.53;;;14.97;;
20283;SDS011;10301;50.832;4.080;2023-03-03T18:54:57;22.40;;;13.83;;
20283;SDS011;10301;50.832;4.080;2023-03-03T19:04:38;24.07;;;13.97;;
20283;SDS011;10301;50.832;4.080;2023-03-03T19:09:54;25.03;;;16.37;;
20283;SDS011;10301;50.832;4.080;2023-03-03T19:17:59;23.17;;;13.70;;
20283;SDS011;10301;50.832;4.080;2023-03-03T19:20:36;21.93;;;14.90;;
20283;SDS011;10301;50.832;4.080;2023-03-03T19:23:05;20.70;;;12.80;;
20283;SDS011;10301;50.832;4.080;2023-03-03T19:25:37;24.43;;;13.93;;
20283;SDS011;10301;50.832;4.080;2023-03-03T19:28:08;23.60;;;14.37;;
20283;SDS011;10301;50.832;4.080;2023-03-03T19:34:04;18.53;;;12.40;;
20283;SDS011;10301;50.832;4.080;2023-03-03T19:39:47;20.17;;;12.90;;
20283;SDS011;10301;50.832;4.080;2023-03-03T19:42:29;19.57;;;10.87;;
20283;SDS011;10301;50.832;4.080;2023-03-03T19:56:36;12.77;;;9.37;;
20283;SDS011;10301;50.832;4.080;2023-03-03T19:59:15;16.37;;;9.20;;
20283;SDS011;10301;50.832;4.080;2023-03-03T20:01:46;14.80;;;10.23;;
20283;SDS011;10301;50.832;4.080;2023-03-03T20:04:30;16.07;;;10.63;;
20283;SDS011;10301;50.832;4.080;2023-03-03T20:15:25;14.90;;;10.57;;
20283;SDS011;10301;50.832;4.080;2023-03-03T20:26:33;17.30;;;10.80;;
20283;SDS011;10301;50.832;4.080;2023-03-03T20:29:57;13.97;;;10.13;;
20283;SDS011;10301;50.832;4.080;2023-03-03T20:46:06;14.33;;;9.90;;
20283;SDS011;10301;50.832;4.080;2023-03-03T20:57:15;17.07;;;10.93;;
20283;SDS011;10301;50.832;4.080;2023-03-03T21:05:16;17.97;;;10.67;;
20283;SDS011;10301;50.832;4.080;2023-03-03T21:10:26;17.07;;;10.83;;
20283;SDS011;10301;50.832;4.080;2023-03-03T21:12:55;17.93;;;11.40;;
20283;SDS011;10301;50.832;4.080;2023-03-03T21:15:32;17.27;;;11.50;;
20283;SDS011;10301;50.832;4.080;2023-03-03T21:17:59;21.33;;;12.33;;
20283;SDS011;10301;50.832;4.080;2023-03-03T21:20:45;19.60;;;12.30;;
20283;SDS011;10301;50.832;4.080;2023-03-03T21:23:10;20.40;;;12.23;;
20283;SDS011;10301;50.832;4.080;2023-03-03T21:28:14;23.73;;;13.27;;
20283;SDS011;10301;50.832;4.080;2023-03-03T21:33:52;23.10;;;13.90;;
20283;SDS011;10301;50.832;4.080;2023-03-03T21:36:21;22.90;;;13.83;;
20283;SDS011;10301;50.832;4.080;2023-03-03T21:38:50;24.43;;;15.23;;
20283;SDS011;10301;50.832;4.080;2023-03-03T21:41:18;28.13;;;15.47;;
20283;SDS011;10301;50.832;4.080;2023-03-03T21:43:49;23.77;;;15.83;;
20283;SDS011;10301;50.832;4.080;2023-03-03T21:46:16;23.07;;;15.73;;
20283;SDS011;10301;50.832;4.080;2023-03-03T21:48:47;24.13;;;15.93;;
20283;SDS011;10301;50.832;4.080;2023-03-03T21:51:13;27.33;;;15.63;;